SBSV/SSA METAR and TAF weather

Enter ICAO airport designator
Station Type Date Time Source
SBSV METAR 2021/04/18 03:00 UTC NOAA

SBSV 180300Z 09006KT 9999 SCT020 BKN070 26/22 Q1013


Station Type Date Time Source
SBSV Decoded METAR 2021/04/18 03:00 UTC NOAA

Salvador Aeroporto , Brazil (SBSV) 12-54S 038-20W 13M
Apr 17, 2021 - 11:00 PM EDT / 2021.04.18 0300 UTC
Wind: from the E (090 degrees) at 7 MPH (6 KT):0
Visibility: greater than 7 mile(s):0
Sky conditions: mostly cloudy
Temperature: 78 F (26 C)
Dew Point: 71 F (22 C)
Relative Humidity: 78%
Pressure (altimeter): 29.91 in. Hg (1013 hPa)
ob: SBSV 180300Z 09006KT 9999 SCT020 BKN070 26/22 Q1013
cycle: 3

Station Type Date Time Source
SBSV TAF 2021/04/18 06:21 UTC NOAA

TAF SBSV 180200Z 1806/1906 14005KT 9999 SCT020 TN25/1806Z TX28/1814Z
BECMG 1811/1813 06007KT PROB30 1813/1816 SCT020 FEW023TCU
BECMG 1819/1821 14005KT
RMK PGQ

Example: see airport list